Time,TemperatureF,DewpointF,PressureIn,WindDirection,WindDirectionDegrees,WindSpeedMPH,WindSpeedGustMPH,Humidity,HourlyPrecipIn,Conditions,Clouds,dailyrainin,SoftwareType,DateUTC
2013-12-27 00:00:00,26.1,21.4,30.44,NNW,336,0.0,0.0,82,0.00,,,0.00,Wunderground v.1.15,2013-12-27 05:00:00,
2013-12-27 00:10:00,25.8,21.3,30.45,NNW,336,0.0,1.0,83,0.00,,,0.00,Wunderground v.1.15,2013-12-27 05:10:00,
2013-12-27 00:20:00,25.7,21.3,30.45,NNW,336,0.0,0.0,83,0.00,,,0.00,Wunderground v.1.15,2013-12-27 05:20:00,
2013-12-27 00:30:00,25.5,21.3,30.44,NNW,336,0.0,0.0,84,0.00,,,0.00,Wunderground v.1.15,2013-12-27 05:30:00,
2013-12-27 00:40:00,25.3,21.4,30.44,NNW,336,0.0,1.0,85,0.00,,,0.00,Wunderground v.1.15,2013-12-27 05:40:00,
2013-12-27 00:50:00,25.1,20.7,30.44,NNW,336,0.0,1.0,83,0.00,,,0.00,Wunderground v.1.15,2013-12-27 05:50:00,
2013-12-27 01:00:00,25.0,20.6,30.45,NNW,336,0.0,0.0,83,0.00,,,0.00,Wunderground v.1.15,2013-12-27 06:00:00,
2013-12-27 01:10:00,24.9,20.8,30.45,NNW,336,0.0,0.0,84,0.00,,,0.00,Wunderground v.1.15,2013-12-27 06:10:00,
2013-12-27 01:20:00,24.9,20.8,30.44,NNW,336,0.0,0.0,84,0.00,,,0.00,Wunderground v.1.15,2013-12-27 06:20:00,
2013-12-27 01:30:00,25.0,21.1,30.45,NNW,336,0.0,0.0,85,0.00,,,0.00,Wunderground v.1.15,2013-12-27 06:30:00,
2013-12-27 01:40:00,25.0,20.8,30.45,NNW,336,0.0,1.0,84,0.00,,,0.00,Wunderground v.1.15,2013-12-27 06:40:00,
2013-12-27 01:50:00,24.9,21.0,30.45,NNW,336,0.0,1.0,85,0.00,,,0.00,Wunderground v.1.15,2013-12-27 06:50:00,
2013-12-27 02:00:00,24.6,21.0,30.45,NNW,336,0.0,0.0,86,0.00,,,0.00,Wunderground v.1.15,2013-12-27 07:00:00,
2013-12-27 02:10:00,24.4,20.8,30.45,NNW,336,0.0,0.0,86,0.00,,,0.00,Wunderground v.1.15,2013-12-27 07:10:00,
2013-12-27 02:20:00,24.3,21.3,30.45,NNW,336,0.0,0.0,88,0.00,,,0.00,Wunderground v.1.15,2013-12-27 07:20:00,
2013-12-27 02:30:00,24.2,20.9,30.46,NNW,336,0.0,0.0,87,0.00,,,0.00,Wunderground v.1.15,2013-12-27 07:30:00,
2013-12-27 02:40:00,24.0,20.7,30.47,NNW,336,0.0,0.0,87,0.00,,,0.00,Wunderground v.1.15,2013-12-27 07:40:00,
2013-12-27 02:50:00,23.9,20.6,30.47,NNW,336,0.0,0.0,87,0.00,,,0.00,Wunderground v.1.15,2013-12-27 07:50:00,
2013-12-27 03:00:00,23.8,20.8,30.47,NNW,336,0.0,0.0,88,0.00,,,0.00,Wunderground v.1.15,2013-12-27 08:00:00,
2013-12-27 03:10:00,23.8,20.8,30.47,NNW,336,0.0,0.0,88,0.00,,,0.00,Wunderground v.1.15,2013-12-27 08:10:00,
2013-12-27 03:20:00,23.6,20.6,30.46,NNW,336,0.0,0.0,88,0.00,,,0.00,Wunderground v.1.15,2013-12-27 08:20:00,
2013-12-27 03:30:00,23.6,20.6,30.46,NNW,336,0.0,0.0,88,0.00,,,0.00,Wunderground v.1.15,2013-12-27 08:30:00,
2013-12-27 03:40:00,23.5,20.5,30.47,NNW,336,0.0,0.0,88,0.00,,,0.00,Wunderground v.1.15,2013-12-27 08:40:00,
2013-12-27 03:50:00,23.6,20.6,30.47,NNW,336,0.0,0.0,88,0.00,,,0.00,Wunderground v.1.15,2013-12-27 08:50:00,
2013-12-27 04:00:00,24.0,21.0,30.47,NNW,336,0.0,0.0,88,0.00,,,0.00,Wunderground v.1.15,2013-12-27 09:00:00,
2013-12-27 04:10:00,24.0,21.0,30.47,NNW,336,0.0,0.0,88,0.00,,,0.00,Wunderground v.1.15,2013-12-27 09:10:00,
2013-12-27 04:20:00,24.0,21.2,30.46,NNW,336,0.0,0.0,89,0.00,,,0.00,Wunderground v.1.15,2013-12-27 09:20:00,
2013-12-27 04:30:00,24.1,21.6,30.47,NNW,336,0.0,0.0,90,0.00,,,0.00,Wunderground v.1.15,2013-12-27 09:30:00,
2013-12-27 04:40:00,24.2,20.9,30.46,NNW,336,0.0,0.0,87,0.00,,,0.00,Wunderground v.1.15,2013-12-27 09:40:00,
2013-12-27 04:50:00,24.3,20.7,30.47,NNW,336,0.0,0.0,86,0.00,,,0.00,Wunderground v.1.15,2013-12-27 09:50:00,
2013-12-27 05:00:00,24.3,20.7,30.46,NNW,336,0.0,0.0,86,0.00,,,0.00,Wunderground v.1.15,2013-12-27 10:00:00,
2013-12-27 05:10:00,24.0,20.7,30.47,NNW,336,0.0,0.0,87,0.00,,,0.00,Wunderground v.1.15,2013-12-27 10:10:00,
2013-12-27 05:20:00,23.7,20.7,30.47,NNW,336,0.0,0.0,88,0.00,,,0.00,Wunderground v.1.15,2013-12-27 10:20:00,
2013-12-27 05:30:00,23.6,20.6,30.48,NNW,336,0.0,0.0,88,0.00,,,0.00,Wunderground v.1.15,2013-12-27 10:30:00,
2013-12-27 05:40:00,23.6,20.0,30.48,NNW,336,0.0,0.0,86,0.00,,,0.00,Wunderground v.1.15,2013-12-27 10:40:00,
2013-12-27 05:50:00,23.6,20.0,30.47,NNW,336,0.0,0.0,86,0.00,,,0.00,Wunderground v.1.15,2013-12-27 10:50:00,
2013-12-27 06:00:00,23.6,20.0,30.47,NNW,336,0.0,0.0,86,0.00,,,0.00,Wunderground v.1.15,2013-12-27 11:00:00,
2013-12-27 06:10:00,23.7,20.4,30.47,NNW,336,0.0,0.0,87,0.00,,,0.00,Wunderground v.1.15,2013-12-27 11:10:00,
2013-12-27 06:20:00,23.8,20.5,30.47,NNW,336,0.0,0.0,87,0.00,,,0.00,Wunderground v.1.15,2013-12-27 11:20:00,
2013-12-27 06:30:00,23.9,20.3,30.47,NNW,336,0.0,0.0,86,0.00,,,0.00,Wunderground v.1.15,2013-12-27 11:30:00,
2013-12-27 06:40:00,23.7,20.4,30.47,NNW,336,0.0,0.0,87,0.00,,,0.00,Wunderground v.1.15,2013-12-27 11:40:00,
2013-12-27 06:50:00,23.5,20.2,30.47,NNW,336,0.0,0.0,87,0.00,,,0.00,Wunderground v.1.15,2013-12-27 11:50:00,
2013-12-27 07:00:00,23.4,20.4,30.48,NNW,336,0.0,1.0,88,0.00,,,0.00,Wunderground v.1.15,2013-12-27 12:00:00,
2013-12-27 07:10:00,23.2,20.4,30.48,SW,223,1.0,1.0,89,0.00,,,0.00,Wunderground v.1.15,2013-12-27 12:10:00,
2013-12-27 07:20:00,23.3,20.5,30.48,SW,218,0.0,2.0,89,0.00,,,0.00,Wunderground v.1.15,2013-12-27 12:20:00,
2013-12-27 07:30:00,23.1,20.1,30.48,SW,218,1.0,1.0,88,0.00,,,0.00,Wunderground v.1.15,2013-12-27 12:30:00,
2013-12-27 07:40:00,23.1,20.3,30.48,SW,218,0.0,0.0,89,0.00,,,0.00,Wunderground v.1.15,2013-12-27 12:40:00,
2013-12-27 07:50:00,23.1,20.3,30.48,SW,218,0.0,0.0,89,0.00,,,0.00,Wunderground v.1.15,2013-12-27 12:50:00,
2013-12-27 08:00:00,23.4,21.2,30.48,SW,217,0.0,0.0,91,0.00,,,0.00,Wunderground v.1.15,2013-12-27 13:00:00,
2013-12-27 08:10:00,24.2,21.4,30.49,SW,218,0.0,0.0,89,0.00,,,0.00,Wunderground v.1.15,2013-12-27 13:10:00,
2013-12-27 08:20:00,24.9,21.8,30.49,SW,218,0.0,0.0,88,0.00,,,0.00,Wunderground v.1.15,2013-12-27 13:20:00,
2013-12-27 08:30:00,25.8,22.5,30.49,SW,218,0.0,0.0,87,0.00,,,0.00,Wunderground v.1.15,2013-12-27 13:30:00,
2013-12-27 08:40:00,27.1,22.9,30.49,SW,218,0.0,0.0,84,0.00,,,0.00,Wunderground v.1.15,2013-12-27 13:40:00,
2013-12-27 08:50:00,28.4,23.9,30.49,SW,217,0.0,1.0,83,0.00,,,0.00,Wunderground v.1.15,2013-12-27 13:50:00,
2013-12-27 09:00:00,29.1,24.0,30.50,SW,218,0.0,2.0,81,0.00,,,0.00,Wunderground v.1.15,2013-12-27 14:00:00,
2013-12-27 09:10:00,30.3,24.3,30.50,SW,214,1.0,1.0,78,0.00,,,0.00,Wunderground v.1.15,2013-12-27 14:10:00,
2013-12-27 09:20:00,31.2,24.8,30.49,SSW,213,1.0,1.0,77,0.00,,,0.00,Wunderground v.1.15,2013-12-27 14:20:00,
2013-12-27 09:30:00,32.2,25.5,30.50,SSW,213,0.0,0.0,76,0.00,,,0.00,Wunderground v.1.15,2013-12-27 14:30:00,
2013-12-27 09:40:00,34.1,25.0,30.50,SSW,213,1.0,1.0,69,0.00,,,0.00,Wunderground v.1.15,2013-12-27 14:40:00,
2013-12-27 09:50:00,35.9,26.4,30.50,SSW,213,1.0,1.0,68,0.00,,,0.00,Wunderground v.1.15,2013-12-27 14:50:00,
2013-12-27 10:00:00,37.5,27.2,30.50,SSW,213,0.0,1.0,66,0.00,,,0.00,Wunderground v.1.15,2013-12-27 15:00:00,
2013-12-27 10:10:00,39.2,27.3,30.50,South,177,1.0,3.0,62,0.00,,,0.00,Wunderground v.1.15,2013-12-27 15:10:00,
2013-12-27 10:20:00,40.9,28.1,30.50,SE,131,2.0,2.0,60,0.00,,,0.00,Wunderground v.1.15,2013-12-27 15:20:00,
2013-12-27 10:30:00,42.4,26.5,30.51,SSE,165,2.0,2.0,53,0.00,,,0.00,Wunderground v.1.15,2013-12-27 15:30:00,
2013-12-27 10:40:00,43.0,24.1,30.50,South,169,3.0,4.0,47,0.00,,,0.00,Wunderground v.1.15,2013-12-27 15:40:00,
2013-12-27 10:50:00,43.5,21.9,30.50,SE,136,3.0,6.0,42,0.00,,,0.00,Wunderground v.1.15,2013-12-27 15:50:00,
2013-12-27 11:00:00,44.2,20.2,30.49,SSW,195,4.0,5.0,38,0.00,,,0.00,Wunderground v.1.15,2013-12-27 16:00:00,
2013-12-27 11:10:00,44.6,20.5,30.49,SE,133,4.0,4.0,38,0.00,,,0.00,Wunderground v.1.15,2013-12-27 16:10:00,
2013-12-27 11:20:00,45.4,20.6,30.48,SE,146,3.0,3.0,37,0.00,,,0.00,Wunderground v.1.15,2013-12-27 16:20:00,
2013-12-27 11:30:00,45.6,21.4,30.48,SSE,163,4.0,4.0,38,0.00,,,0.00,Wunderground v.1.15,2013-12-27 16:30:00,
2013-12-27 11:40:00,46.1,21.2,30.48,SE,139,3.0,4.0,37,0.00,,,0.00,Wunderground v.1.15,2013-12-27 16:40:00,
2013-12-27 11:50:00,47.0,20.0,30.47,ENE,72,3.0,3.0,34,0.00,,,0.00,Wunderground v.1.15,2013-12-27 16:50:00,
2013-12-27 12:00:00,47.7,18.5,30.46,SSW,207,3.0,7.0,31,0.00,,,0.00,Wunderground v.1.15,2013-12-27 17:00:00,
2013-12-27 12:10:00,47.9,20.1,30.46,ESE,121,4.0,5.0,33,0.00,,,0.00,Wunderground v.1.15,2013-12-27 17:10:00,
2013-12-27 12:20:00,47.8,17.8,30.45,SSE,154,6.0,6.0,30,0.00,,,0.00,Wunderground v.1.15,2013-12-27 17:20:00,
2013-12-27 12:30:00,48.5,19.9,30.45,South,189,4.0,4.0,32,0.00,,,0.00,Wunderground v.1.15,2013-12-27 17:30:00,
2013-12-27 12:40:00,48.8,19.5,30.44,SSE,155,4.0,4.0,31,0.00,,,0.00,Wunderground v.1.15,2013-12-27 17:40:00,
2013-12-27 12:50:00,49.6,19.4,30.44,South,186,4.0,5.0,30,0.00,,,0.00,Wunderground v.1.15,2013-12-27 17:50:00,
2013-12-27 13:00:00,49.6,19.4,30.43,WSW,257,4.0,6.0,30,0.00,,,0.00,Wunderground v.1.15,2013-12-27 18:00:00,
2013-12-27 13:10:00,49.9,19.7,30.42,SE,138,4.0,8.0,30,0.00,,,0.00,Wunderground v.1.15,2013-12-27 18:10:00,
2013-12-27 13:20:00,50.3,20.0,30.42,South,175,4.0,4.0,30,0.00,,,0.00,Wunderground v.1.15,2013-12-27 18:20:00,
2013-12-27 13:30:00,50.7,20.4,30.41,SSE,158,4.0,5.0,30,0.00,,,0.00,Wunderground v.1.15,2013-12-27 18:30:00,
2013-12-27 13:40:00,51.0,20.6,30.41,ESE,118,4.0,4.0,30,0.00,,,0.00,Wunderground v.1.15,2013-12-27 18:40:00,
2013-12-27 13:50:00,51.1,21.5,30.41,SSW,202,5.0,5.0,31,0.00,,,0.00,Wunderground v.1.15,2013-12-27 18:50:00,
2013-12-27 14:00:00,51.4,21.0,30.40,SE,131,5.0,5.0,30,0.00,,,0.00,Wunderground v.1.15,2013-12-27 19:00:00,
2013-12-27 14:10:00,51.7,21.2,30.41,South,182,4.0,4.0,30,0.00,,,0.00,Wunderground v.1.15,2013-12-27 19:10:00,
2013-12-27 14:20:00,51.5,21.8,30.40,SSW,194,5.0,5.0,31,0.00,,,0.00,Wunderground v.1.15,2013-12-27 19:20:00,
2013-12-27 14:30:00,51.8,22.1,30.40,SSE,159,4.0,4.0,31,0.00,,,0.00,Wunderground v.1.15,2013-12-27 19:30:00,
2013-12-27 14:40:00,51.8,22.1,30.39,SE,146,5.0,5.0,31,0.00,,,0.00,Wunderground v.1.15,2013-12-27 19:40:00,
2013-12-27 14:50:00,51.9,20.6,30.39,South,177,5.0,12.0,29,0.00,,,0.00,Wunderground v.1.15,2013-12-27 19:50:00,
2013-12-27 15:00:00,52.0,20.7,30.39,SSW,193,4.0,4.0,29,0.00,,,0.00,Wunderground v.1.15,2013-12-27 20:00:00,
2013-12-27 15:10:00,52.4,20.2,30.38,SW,215,3.0,5.0,28,0.00,,,0.00,Wunderground v.1.15,2013-12-27 20:10:00,
2013-12-27 15:20:00,52.2,20.0,30.39,SSW,204,4.0,4.0,28,0.00,,,0.00,Wunderground v.1.15,2013-12-27 20:20:00,
2013-12-27 15:30:00,52.1,22.3,30.39,WSW,254,3.0,3.0,31,0.00,,,0.00,Wunderground v.1.15,2013-12-27 20:30:00,
2013-12-27 15:40:00,51.6,21.1,30.38,SE,124,2.0,12.0,30,0.00,,,0.00,Wunderground v.1.15,2013-12-27 20:40:00,
2013-12-27 15:50:00,51.2,20.8,30.39,SSW,213,3.0,12.0,30,0.00,,,0.00,Wunderground v.1.15,2013-12-27 20:50:00,
2013-12-27 16:00:00,50.8,22.0,30.39,SSW,207,3.0,5.0,32,0.00,,,0.00,Wunderground v.1.15,2013-12-27 21:00:00,
2013-12-27 16:10:00,50.7,21.1,30.39,SSE,166,3.0,3.0,31,0.00,,,0.00,Wunderground v.1.15,2013-12-27 21:10:00,
2013-12-27 16:20:00,50.5,21.7,30.39,SE,139,3.0,3.0,32,0.00,,,0.00,Wunderground v.1.15,2013-12-27 21:20:00,
2013-12-27 16:30:00,49.9,21.9,30.38,South,182,2.0,3.0,33,0.00,,,0.00,Wunderground v.1.15,2013-12-27 21:30:00,
2013-12-27 16:40:00,49.9,21.9,30.39,South,186,2.0,2.0,33,0.00,,,0.00,Wunderground v.1.15,2013-12-27 21:40:00,
2013-12-27 16:50:00,49.6,20.9,30.39,SSE,167,1.0,1.0,32,0.00,,,0.00,Wunderground v.1.15,2013-12-27 21:50:00,
2013-12-27 17:00:00,49.0,21.1,30.39,SSE,167,0.0,0.0,33,0.00,,,0.00,Wunderground v.1.15,2013-12-27 22:00:00,
2013-12-27 17:10:00,48.4,21.3,30.39,SSE,167,0.0,0.0,34,0.00,,,0.00,Wunderground v.1.15,2013-12-27 22:10:00,
2013-12-27 17:20:00,47.6,21.9,30.39,SSE,167,0.0,0.0,36,0.00,,,0.00,Wunderground v.1.15,2013-12-27 22:20:00,
2013-12-27 17:30:00,46.6,21.7,30.39,SSE,167,0.0,0.0,37,0.00,,,0.00,Wunderground v.1.15,2013-12-27 22:30:00,
2013-12-27 17:40:00,45.5,21.3,30.39,SSE,167,0.0,9.0,38,0.00,,,0.00,Wunderground v.1.15,2013-12-27 22:40:00,
2013-12-27 17:50:00,44.5,21.0,30.39,SSE,167,0.0,9.0,39,0.00,,,0.00,Wunderground v.1.15,2013-12-27 22:50:00,
2013-12-27 18:00:00,43.4,21.8,30.40,SSE,167,0.0,0.0,42,0.00,,,0.00,Wunderground v.1.15,2013-12-27 23:00:00,
2013-12-27 18:10:00,42.7,22.3,30.40,SSE,167,0.0,0.0,44,0.00,,,0.00,Wunderground v.1.15,2013-12-27 23:10:00,
2013-12-27 18:20:00,41.9,22.1,30.40,SSE,167,0.0,0.0,45,0.00,,,0.00,Wunderground v.1.15,2013-12-27 23:20:00,
2013-12-27 18:30:00,41.1,21.3,30.41,SSE,167,0.0,0.0,45,0.00,,,0.00,Wunderground v.1.15,2013-12-27 23:30:00,
2013-12-27 18:40:00,40.6,21.9,30.41,SSE,167,0.0,2.0,47,0.00,,,0.00,Wunderground v.1.15,2013-12-27 23:40:00,
2013-12-27 18:50:00,39.9,22.3,30.41,SSE,167,0.0,2.0,49,0.00,,,0.00,Wunderground v.1.15,2013-12-27 23:50:00,
2013-12-27 19:00:00,39.6,22.5,30.42,SSE,167,0.0,0.0,50,0.00,,,0.00,Wunderground v.1.15,2013-12-28 00:00:00,
2013-12-27 19:10:00,39.1,22.5,30.42,SSE,167,0.0,0.0,51,0.00,,,0.00,Wunderground v.1.15,2013-12-28 00:10:00,
2013-12-27 19:20:00,38.3,21.7,30.42,SSE,167,0.0,0.0,51,0.00,,,0.00,Wunderground v.1.15,2013-12-28 00:20:00,
2013-12-27 19:30:00,37.7,21.6,30.42,SSE,167,0.0,0.0,52,0.00,,,0.00,Wunderground v.1.15,2013-12-28 00:30:00,
2013-12-27 19:40:00,37.3,22.2,30.42,SSE,167,0.0,1.0,54,0.00,,,0.00,Wunderground v.1.15,2013-12-28 00:40:00,
2013-12-27 19:50:00,36.5,22.7,30.42,SSE,167,0.0,1.0,57,0.00,,,0.00,Wunderground v.1.15,2013-12-28 00:50:00,
2013-12-27 20:00:00,35.7,23.2,30.42,SSE,167,0.0,0.0,60,0.00,,,0.00,Wunderground v.1.15,2013-12-28 01:00:00,
2013-12-27 20:10:00,34.9,22.8,30.42,SSE,167,0.0,0.0,61,0.00,,,0.00,Wunderground v.1.15,2013-12-28 01:10:00,
2013-12-27 20:20:00,34.1,22.8,30.42,SSE,167,0.0,0.0,63,0.00,,,0.00,Wunderground v.1.15,2013-12-28 01:20:00,
2013-12-27 20:30:00,33.5,23.0,30.43,SSE,167,0.0,0.0,65,0.00,,,0.00,Wunderground v.1.15,2013-12-28 01:30:00,
2013-12-27 20:40:00,33.3,22.8,30.43,SSE,167,0.0,1.0,65,0.00,,,0.00,Wunderground v.1.15,2013-12-28 01:40:00,
2013-12-27 20:50:00,33.0,22.9,30.42,SSE,167,0.0,1.0,66,0.00,,,0.00,Wunderground v.1.15,2013-12-28 01:50:00,
2013-12-27 21:00:00,32.6,22.5,30.43,SSE,167,0.0,0.0,66,0.00,,,0.00,Wunderground v.1.15,2013-12-28 02:00:00,
2013-12-27 21:10:00,32.4,22.7,30.43,SSE,167,0.0,0.0,67,0.00,,,0.00,Wunderground v.1.15,2013-12-28 02:10:00,
2013-12-27 21:20:00,32.2,22.8,30.43,SSE,167,0.0,0.0,68,0.00,,,0.00,Wunderground v.1.15,2013-12-28 02:20:00,
2013-12-27 21:30:00,32.0,23.0,30.43,SSE,167,0.0,0.0,69,0.00,,,0.00,Wunderground v.1.15,2013-12-28 02:30:00,
2013-12-27 21:40:00,31.5,23.5,30.43,SSE,167,0.0,1.0,72,0.00,,,0.00,Wunderground v.1.15,2013-12-28 02:40:00,
2013-12-27 21:50:00,31.5,22.8,30.43,SSE,167,0.0,1.0,70,0.00,,,0.00,Wunderground v.1.15,2013-12-28 02:50:00,
2013-12-27 22:00:00,31.3,23.0,30.42,SSE,167,0.0,0.0,71,0.00,,,0.00,Wunderground v.1.15,2013-12-28 03:00:00,
2013-12-27 22:10:00,30.9,24.2,30.42,SSE,167,0.0,0.0,76,0.00,,,0.00,Wunderground v.1.15,2013-12-28 03:10:00,
2013-12-27 22:20:00,30.5,23.2,30.43,SSE,167,0.0,0.0,74,0.00,,,0.00,Wunderground v.1.15,2013-12-28 03:20:00,
2013-12-27 22:30:00,30.3,22.7,30.43,SSE,167,0.0,1.0,73,0.00,,,0.00,Wunderground v.1.15,2013-12-28 03:30:00,
2013-12-27 22:40:00,30.3,23.0,30.43,SSE,167,0.0,0.0,74,0.00,,,0.00,Wunderground v.1.15,2013-12-28 03:40:00,
2013-12-27 22:50:00,30.2,22.6,30.43,SSE,167,0.0,0.0,73,0.00,,,0.00,Wunderground v.1.15,2013-12-28 03:50:00,
2013-12-27 23:00:00,29.9,22.6,30.43,SSE,167,0.0,0.0,74,0.00,,,0.00,Wunderground v.1.15,2013-12-28 04:00:00,
2013-12-27 23:10:00,29.5,23.8,30.43,SSE,167,0.0,0.0,79,0.00,,,0.00,Wunderground v.1.15,2013-12-28 04:10:00,
2013-12-27 23:20:00,29.2,22.9,30.43,SSE,167,0.0,0.0,77,0.00,,,0.00,Wunderground v.1.15,2013-12-28 04:20:00,
2013-12-27 23:30:00,29.1,22.5,30.42,SSE,167,0.0,0.0,76,0.00,,,0.00,Wunderground v.1.15,2013-12-28 04:30:00,
2013-12-27 23:40:00,28.9,22.9,30.42,SSE,167,0.0,1.0,78,0.00,,,0.00,Wunderground v.1.15,2013-12-28 04:40:00,
2013-12-27 23:50:00,28.7,23.3,30.42,SSE,167,0.0,1.0,80,0.00,,,0.00,Wunderground v.1.15,2013-12-28 04:50:00,